createdAt,value
2023-02-22T00:01:35.671Z,70.56
2023-02-22T00:04:04.487Z,70.37
2023-02-22T00:06:31.807Z,70.63
2023-02-22T00:08:59.436Z,70.52
2023-02-22T00:11:26.756Z,70.42
2023-02-22T00:13:57.469Z,70.49
2023-02-22T00:16:25.542Z,70.28
2023-02-22T00:18:53.463Z,70.53
2023-02-22T00:21:21.130Z,70.89
2023-02-22T00:23:48.816Z,70.87
2023-02-22T00:26:20.459Z,70.52
2023-02-22T00:28:49.399Z,70.75
2023-02-22T00:31:16.969Z,70.92
2023-02-22T00:33:44.805Z,70.90
2023-02-22T00:36:12.878Z,70.64
2023-02-22T00:38:40.865Z,70.90
2023-02-22T00:41:08.297Z,71.62
2023-02-22T00:43:36.078Z,71.69
2023-02-22T00:46:03.850Z,72.03
2023-02-22T00:48:31.230Z,72.17
2023-02-22T00:50:58.576Z,71.99
2023-02-22T00:53:26.206Z,71.42
2023-02-22T00:55:53.547Z,71.45
2023-02-22T00:58:21.485Z,71.15
2023-02-22T01:00:48.784Z,71.75
2023-02-22T01:03:18.469Z,72.39
2023-02-22T01:05:46.201Z,72.49
2023-02-22T01:08:15.686Z,72.11
2023-02-22T01:10:43.245Z,71.50
2023-02-22T01:13:12.557Z,71.12
2023-02-22T01:15:42.087Z,70.86
2023-02-22T01:18:09.473Z,71.40
2023-02-22T01:20:37.081Z,71.71
2023-02-22T01:23:06.877Z,71.85
2023-02-22T01:25:34.790Z,72.27
2023-02-22T01:28:02.460Z,71.88
2023-02-22T01:30:32.996Z,71.29
2023-02-22T01:33:01.308Z,71.34
2023-02-22T01:35:30.334Z,71.21
2023-02-22T01:37:58.363Z,71.24
2023-02-22T01:40:29.770Z,71.47
2023-02-22T01:43:01.896Z,71.14
2023-02-22T01:45:35.110Z,70.98
2023-02-22T01:48:13.342Z,71.10
2023-02-22T01:51:00.954Z,70.83
2023-02-22T01:53:36.142Z,70.95
2023-02-22T01:56:03.623Z,70.68
2023-02-22T01:58:31.969Z,71.07
2023-02-22T02:00:59.382Z,71.81
2023-02-22T02:03:29.956Z,71.84
2023-02-22T02:05:59.358Z,71.82
2023-02-22T02:08:32.635Z,70.76
2023-02-22T02:10:59.943Z,71.40
2023-02-22T02:13:27.173Z,71.20
2023-02-22T02:15:57.696Z,71.62
2023-02-22T02:18:25.255Z,72.31
2023-02-22T02:21:32.030Z,72.40
2023-02-22T02:24:22.861Z,72.60
2023-02-22T02:27:06.047Z,72.45
2023-02-22T02:30:04.182Z,72.67
2023-02-22T02:32:34.491Z,72.41
2023-02-22T02:35:30.570Z,72.68
2023-02-22T02:38:16.473Z,72.41
2023-02-22T02:41:19.624Z,72.37
2023-02-22T02:44:08.625Z,71.83
2023-02-22T02:46:37.457Z,72.37
2023-02-22T02:49:24.681Z,72.37
2023-02-22T02:51:53.530Z,72.64
2023-02-22T02:54:22.115Z,72.44
2023-02-22T02:56:52.845Z,72.27
2023-02-22T02:59:34.493Z,72.31
2023-02-22T03:02:04.918Z,71.74
2023-02-22T03:04:56.872Z,71.43
2023-02-22T03:07:30.166Z,71.65
2023-02-22T03:10:19.726Z,72.54
2023-02-22T03:13:33.428Z,73.69
2023-02-22T03:16:19.472Z,74.04
2023-02-22T03:18:49.677Z,74.14
2023-02-22T03:21:33.751Z,74.85
2023-02-22T03:24:10.532Z,75.01
2023-02-22T03:27:03.221Z,75.18
2023-02-22T03:29:36.721Z,75.49
2023-02-22T03:32:08.330Z,75.44
2023-02-22T03:34:40.834Z,74.68
2023-02-22T03:37:18.228Z,75.08
2023-02-22T03:39:46.888Z,73.99
2023-02-22T03:42:18.432Z,74.95
2023-02-22T03:44:46.212Z,74.65
2023-02-22T03:47:18.582Z,74.85
2023-02-22T03:49:55.802Z,75.44
2023-02-22T03:52:25.938Z,75.39
2023-02-22T03:54:56.252Z,76.10
2023-02-22T03:57:28.723Z,75.72
2023-02-22T04:00:07.292Z,75.65
2023-02-22T04:02:40.749Z,75.92
2023-02-22T04:05:11.902Z,76.41
2023-02-22T04:07:39.413Z,76.46
2023-02-22T04:10:08.738Z,76.05
2023-02-22T04:12:36.778Z,75.61
2023-02-22T04:15:07.257Z,76.16
2023-02-22T04:17:34.642Z,75.97
2023-02-22T04:20:04.067Z,76.29
2023-02-22T04:22:42.560Z,76.10
2023-02-22T04:25:10.030Z,76.06
2023-02-22T04:27:37.470Z,75.89
2023-02-22T04:30:06.048Z,75.66
2023-02-22T04:32:34.975Z,75.37
2023-02-22T04:35:03.755Z,75.49
2023-02-22T04:37:34.862Z,75.31
2023-02-22T04:40:07.999Z,75.17
2023-02-22T04:42:36.599Z,75.30
2023-02-22T04:45:04.832Z,75.26
2023-02-22T04:47:32.422Z,75.19
2023-02-22T04:50:00.560Z,75.20
2023-02-22T04:52:28.015Z,74.98
2023-02-22T04:54:55.341Z,75.17
2023-02-22T04:57:22.762Z,75.39
2023-02-22T04:59:51.392Z,75.16
2023-02-22T05:02:19.154Z,75.18
2023-02-22T05:04:46.576Z,75.12
2023-02-22T05:07:14.222Z,75.22
2023-02-22T05:09:41.677Z,75.13
2023-02-22T05:12:08.986Z,75.38
2023-02-22T05:14:36.356Z,75.23
2023-02-22T05:17:04.060Z,75.26
2023-02-22T05:19:31.377Z,75.39
2023-02-22T05:21:58.868Z,75.48
2023-02-22T05:24:26.208Z,75.47
2023-02-22T05:27:13.835Z,75.27
2023-02-22T05:29:41.686Z,75.37
2023-02-22T05:32:08.957Z,75.36
2023-02-22T05:34:36.373Z,75.61
2023-02-22T05:37:03.656Z,75.57
2023-02-22T05:39:31.238Z,75.67
2023-02-22T05:41:58.565Z,75.87
2023-02-22T05:44:26.065Z,75.78
2023-02-22T05:46:53.413Z,75.80
2023-02-22T05:49:20.800Z,75.61
2023-02-22T05:51:48.157Z,75.81
2023-02-22T05:54:17.608Z,75.58
2023-02-22T05:56:45.086Z,75.47
2023-02-22T05:59:12.550Z,75.65
2023-02-22T06:01:39.857Z,75.59
2023-02-22T06:04:07.233Z,75.65
2023-02-22T06:06:34.545Z,75.70
2023-02-22T06:09:02.026Z,75.58
2023-02-22T06:11:29.518Z,75.59
2023-02-22T06:13:56.917Z,75.70
2023-02-22T06:16:24.315Z,75.49
2023-02-22T06:18:51.852Z,75.25
2023-02-22T06:21:19.458Z,74.37
2023-02-22T06:23:47.305Z,74.05
2023-02-22T06:26:18.148Z,73.55
2023-02-22T06:28:46.813Z,72.92
2023-02-22T06:31:14.363Z,71.06
2023-02-22T06:33:41.952Z,69.20
2023-02-22T06:36:09.789Z,68.29
2023-02-22T06:38:37.220Z,67.81
2023-02-22T06:41:04.829Z,66.10
2023-02-22T06:43:32.592Z,64.19
2023-02-22T06:46:01.841Z,62.45
2023-02-22T06:48:29.422Z,61.12
2023-02-22T06:50:57.244Z,61.68
2023-02-22T06:53:24.780Z,62.69
2023-02-22T06:55:53.868Z,63.54
2023-02-22T06:58:21.306Z,62.81
2023-02-22T07:00:49.228Z,62.75
2023-02-22T07:03:26.606Z,62.33
2023-02-22T07:05:55.534Z,60.94
2023-02-22T07:08:31.144Z,59.07
2023-02-22T07:10:58.708Z,59.46
2023-02-22T07:13:26.244Z,60.40
2023-02-22T07:15:53.849Z,60.87
2023-02-22T07:18:21.806Z,61.08
2023-02-22T07:20:49.997Z,59.96
2023-02-22T07:23:25.384Z,59.99
2023-02-22T07:25:53.733Z,59.04
2023-02-22T07:28:21.283Z,59.15
2023-02-22T07:30:48.816Z,60.26
2023-02-22T07:33:16.468Z,61.04
2023-02-22T07:35:46.613Z,61.41
2023-02-22T07:38:15.836Z,61.05
2023-02-22T07:40:43.394Z,60.17
2023-02-22T07:43:20.838Z,58.30
2023-02-22T07:45:49.400Z,55.03
2023-02-22T07:48:17.683Z,52.42
2023-02-22T07:50:46.757Z,51.10
2023-02-22T07:53:19.290Z,48.98
2023-02-22T07:55:51.309Z,47.29
2023-02-22T07:58:20.828Z,46.04
2023-02-22T08:00:49.542Z,44.47
2023-02-22T08:03:18.794Z,43.58
2023-02-22T08:05:47.714Z,43.14
2023-02-22T08:08:18.187Z,44.35
2023-02-22T08:10:47.675Z,43.66
2023-02-22T08:13:15.428Z,43.75
2023-02-22T08:15:44.350Z,43.44
2023-02-22T08:18:13.928Z,43.53
2023-02-22T08:20:42.944Z,45.04
2023-02-22T08:23:10.822Z,45.98
2023-02-22T08:25:38.369Z,46.42
2023-02-22T08:28:07.782Z,47.01
2023-02-22T08:30:35.979Z,49.68
2023-02-22T08:33:05.150Z,53.99
2023-02-22T08:35:33.373Z,55.58
2023-02-22T08:38:05.482Z,58.07
2023-02-22T08:40:34.954Z,58.83
2023-02-22T08:43:03.045Z,59.26
2023-02-22T08:45:30.757Z,59.11
2023-02-22T08:47:59.764Z,59.08
2023-02-22T08:50:33.720Z,59.64
2023-02-22T08:53:07.444Z,60.99
2023-02-22T08:55:36.945Z,60.75
2023-02-22T08:58:11.737Z,60.19
2023-02-22T09:00:40.357Z,59.67
2023-02-22T09:03:10.040Z,59.56
2023-02-22T09:05:38.164Z,59.23
2023-02-22T09:08:05.819Z,59.15
2023-02-22T09:10:34.295Z,57.40
2023-02-22T09:13:02.596Z,57.15
2023-02-22T09:15:30.649Z,56.79
2023-02-22T09:17:58.004Z,57.34
2023-02-22T09:20:25.686Z,56.66
2023-02-22T09:22:53.552Z,56.28
2023-02-22T09:25:21.349Z,56.32
2023-02-22T09:27:50.143Z,56.17
2023-02-22T09:30:19.036Z,56.17
2023-02-22T09:32:47.315Z,55.61
2023-02-22T09:35:17.307Z,55.99
2023-02-22T09:37:46.709Z,55.51
2023-02-22T09:40:24.882Z,55.07
2023-02-22T09:43:01.390Z,55.13
2023-02-22T09:45:37.203Z,54.87
2023-02-22T09:48:21.142Z,54.63
2023-02-22T09:51:09.439Z,54.68
2023-02-22T09:53:42.005Z,54.92
2023-02-22T09:56:11.550Z,55.08
2023-02-22T09:58:46.926Z,54.23
2023-02-22T10:01:36.624Z,53.59
2023-02-22T10:04:30.669Z,52.87
2023-02-22T10:07:26.388Z,53.17
2023-02-22T10:09:57.566Z,53.42
2023-02-22T10:12:47.435Z,53.65
2023-02-22T10:15:43.893Z,53.79
2023-02-22T10:18:39.335Z,53.89
2023-02-22T10:21:47.816Z,54.15
2023-02-22T10:27:34.236Z,53.55
2023-02-22T10:30:10.085Z,53.54
2023-02-22T10:32:52.138Z,53.35
2023-02-22T10:35:28.321Z,53.99
2023-02-22T10:38:14.753Z,54.40
2023-02-22T10:40:44.893Z,54.22
2023-02-22T10:43:12.598Z,53.60
2023-02-22T10:45:40.050Z,53.16
2023-02-22T10:48:14.775Z,52.84
2023-02-22T10:50:44.145Z,52.90
2023-02-22T10:53:14.060Z,52.68
2023-02-22T10:56:06.931Z,52.55
2023-02-22T10:59:05.958Z,53.47
2023-02-22T11:01:33.413Z,52.77
2023-02-22T11:04:17.330Z,53.53
2023-02-22T11:06:47.066Z,53.50
2023-02-22T11:09:25.088Z,53.68
2023-02-22T11:12:12.328Z,53.83
2023-02-22T11:14:40.121Z,54.01
2023-02-22T11:17:11.612Z,53.53
2023-02-22T11:19:40.249Z,52.71
2023-02-22T11:22:41.232Z,51.84
2023-02-22T11:25:19.724Z,51.74
2023-02-22T11:27:47.366Z,52.17
2023-02-22T11:30:44.032Z,52.11
2023-02-22T11:33:17.892Z,52.27
2023-02-22T11:35:53.014Z,51.44
2023-02-22T11:38:24.355Z,51.70
2023-02-22T11:41:15.365Z,52.61
2023-02-22T11:43:44.899Z,52.80
2023-02-22T11:46:22.347Z,53.12
2023-02-22T11:49:09.201Z,52.67
2023-02-22T11:52:01.208Z,52.51
2023-02-22T11:54:54.630Z,52.08
2023-02-22T11:57:36.532Z,52.06
2023-02-22T12:00:24.977Z,51.17
2023-02-22T12:03:06.898Z,50.83
2023-02-22T12:06:01.064Z,50.97
2023-02-22T12:08:54.139Z,51.10
2023-02-22T12:11:37.363Z,51.38
2023-02-22T12:14:10.254Z,51.61
2023-02-22T12:16:59.460Z,51.42
2023-02-22T12:19:43.374Z,50.82
2023-02-22T12:22:22.393Z,51.64
2023-02-22T12:25:08.589Z,51.45
2023-02-22T12:27:46.158Z,51.53
2023-02-22T12:30:25.992Z,51.00
2023-02-22T12:32:54.456Z,50.72
2023-02-22T12:35:24.740Z,49.38
2023-02-22T12:38:09.020Z,49.57
2023-02-22T12:40:42.279Z,49.71
2023-02-22T12:43:18.273Z,49.81
2023-02-22T12:46:12.373Z,50.27
2023-02-22T12:48:52.076Z,50.02
2023-02-22T12:51:19.562Z,49.79
2023-02-22T12:54:01.599Z,49.49
2023-02-22T12:56:35.334Z,49.85
2023-02-22T12:59:19.931Z,50.76
2023-02-22T13:01:57.099Z,50.59
2023-02-22T13:04:38.153Z,50.84
2023-02-22T13:07:10.792Z,50.59
2023-02-22T13:09:41.455Z,50.14
2023-02-22T13:12:27.262Z,50.37
2023-02-22T13:15:00.696Z,49.98
2023-02-22T13:17:55.616Z,49.36
2023-02-22T13:20:27.789Z,50.52
2023-02-22T13:23:47.531Z,50.12
2023-02-22T13:26:50.723Z,50.48
2023-02-22T13:29:23.630Z,50.05
2023-02-22T13:32:06.766Z,49.82
2023-02-22T13:35:20.893Z,49.75
2023-02-22T13:38:14.655Z,49.78
2023-02-22T13:40:54.301Z,49.81
2023-02-22T13:43:52.329Z,50.54
2023-02-22T13:46:39.147Z,50.57
2023-02-22T13:49:25.754Z,50.54
2023-02-22T13:51:55.845Z,49.68
2023-02-22T13:54:47.562Z,49.71
2023-02-22T13:57:28.437Z,50.01
2023-02-22T14:00:26.615Z,49.73
2023-02-22T14:03:15.510Z,49.63
2023-02-22T14:05:43.994Z,49.45
2023-02-22T14:08:14.543Z,49.66
2023-02-22T14:11:00.928Z,49.55
2023-02-22T14:13:29.302Z,49.76
2023-02-22T14:16:02.825Z,49.16
2023-02-22T14:18:39.470Z,49.57
2023-02-22T14:21:07.712Z,49.95
2023-02-22T14:23:51.242Z,50.30
2023-02-22T14:26:31.431Z,50.51
2023-02-22T14:29:11.004Z,50.35
2023-02-22T14:31:41.405Z,50.39
2023-02-22T14:34:21.217Z,50.77
2023-02-22T14:36:56.414Z,50.70
2023-02-22T14:39:40.121Z,50.59
2023-02-22T14:42:27.858Z,50.24
2023-02-22T14:45:10.503Z,49.85
2023-02-22T14:48:04.306Z,50.42
2023-02-22T14:50:44.324Z,49.98
2023-02-22T14:53:11.650Z,50.30
2023-02-22T14:55:41.387Z,50.66
2023-02-22T14:58:19.310Z,51.16
2023-02-22T15:00:48.430Z,51.17
2023-02-22T15:03:34.597Z,51.51
2023-02-22T15:06:18.342Z,51.65
2023-02-22T15:08:49.094Z,51.59
2023-02-22T15:11:24.361Z,51.51
2023-02-22T15:13:52.900Z,51.64
2023-02-22T15:16:21.648Z,51.78
2023-02-22T15:18:52.115Z,51.85
2023-02-22T15:21:21.299Z,51.78
2023-02-22T15:23:59.612Z,51.74
2023-02-22T15:26:37.536Z,52.12
2023-02-22T15:29:19.459Z,52.35
2023-02-22T15:31:48.303Z,52.38
2023-02-22T15:34:15.876Z,52.30
2023-02-22T15:36:43.795Z,52.47
2023-02-22T15:39:44.077Z,52.32
2023-02-22T15:42:23.310Z,52.51
2023-02-22T15:44:55.255Z,52.26
2023-02-22T15:47:30.183Z,52.63
2023-02-22T15:50:16.456Z,52.42
2023-02-22T15:53:05.567Z,52.62
2023-02-22T15:55:41.415Z,53.15
2023-02-22T15:58:18.726Z,53.30
2023-02-22T16:01:07.875Z,53.37
2023-02-22T16:03:50.591Z,53.89
2023-02-22T16:06:38.377Z,54.37
2023-02-22T16:09:12.468Z,54.66
2023-02-22T16:11:46.616Z,54.16
2023-02-22T16:14:26.292Z,54.56
2023-02-22T16:17:31.155Z,54.87
2023-02-22T16:19:59.738Z,54.82
2023-02-22T16:22:33.970Z,55.02
2023-02-22T16:25:19.717Z,54.99
2023-02-22T16:27:56.013Z,55.55
2023-02-22T16:30:34.305Z,55.35
2023-02-22T16:33:05.748Z,56.04
2023-02-22T16:35:35.658Z,55.78
2023-02-22T16:38:04.613Z,56.15
2023-02-22T16:40:34.672Z,56.36
2023-02-22T16:43:04.217Z,56.08
2023-02-22T16:45:31.716Z,56.53
2023-02-22T16:48:02.196Z,56.89
2023-02-22T16:50:29.546Z,56.60
2023-02-22T16:52:58.661Z,56.79
2023-02-22T16:55:26.110Z,56.75
2023-02-22T16:57:55.869Z,56.58
2023-02-22T17:00:31.449Z,56.95
2023-02-22T17:02:59.952Z,56.66
2023-02-22T17:05:27.252Z,56.94
2023-02-22T17:07:54.738Z,57.66
2023-02-22T17:10:22.394Z,58.10
2023-02-22T17:12:50.884Z,58.16
2023-02-22T17:15:37.689Z,58.17
2023-02-22T17:18:14.092Z,58.55
2023-02-22T17:20:41.696Z,58.64
2023-02-22T17:23:09.541Z,58.71
2023-02-22T17:25:40.811Z,58.43
2023-02-22T17:28:08.331Z,58.65
2023-02-22T17:30:36.099Z,58.88
2023-02-22T17:33:05.409Z,58.99
2023-02-22T17:35:37.300Z,59.41
2023-02-22T17:38:08.383Z,58.90
2023-02-22T17:40:36.893Z,59.01
2023-02-22T17:43:04.727Z,59.31
2023-02-22T17:45:32.266Z,59.43
2023-02-22T17:47:59.790Z,60.03
2023-02-22T17:50:27.492Z,60.87
2023-02-22T17:52:54.867Z,61.66
2023-02-22T17:55:22.304Z,61.81
2023-02-22T17:57:56.915Z,62.60
2023-02-22T18:00:34.860Z,63.25
2023-02-22T18:03:08.286Z,63.18
2023-02-22T18:05:43.529Z,62.41
2023-02-22T18:08:10.948Z,62.23
2023-02-22T18:10:38.525Z,62.86
2023-02-22T18:13:05.956Z,62.96
2023-02-22T18:15:36.010Z,62.86
2023-02-22T18:18:05.410Z,63.02
2023-02-22T18:20:38.418Z,63.00
2023-02-22T18:23:09.733Z,63.03
2023-02-22T18:25:37.370Z,63.32
2023-02-22T18:28:06.322Z,64.09
2023-02-22T18:30:36.034Z,64.35
2023-02-22T18:33:07.151Z,64.31
2023-02-22T18:35:34.470Z,63.58
2023-02-22T18:38:01.730Z,63.66
2023-02-22T18:40:29.111Z,63.59
2023-02-22T18:42:56.482Z,64.12
2023-02-22T18:45:24.145Z,63.75
2023-02-22T18:47:52.301Z,64.58
2023-02-22T18:50:19.832Z,65.69
2023-02-22T18:52:47.180Z,65.88
2023-02-22T18:55:18.937Z,65.58
2023-02-22T18:57:46.554Z,65.05
2023-02-22T19:00:16.027Z,64.32
2023-02-22T19:02:43.760Z,64.25
2023-02-22T19:05:12.085Z,64.39
2023-02-22T19:07:39.610Z,64.49
2023-02-22T19:10:07.374Z,64.95
2023-02-22T19:12:34.747Z,65.51
2023-02-22T19:15:02.047Z,65.68
2023-02-22T19:17:29.621Z,65.53
2023-02-22T19:19:56.914Z,65.42
2023-02-22T19:22:26.346Z,65.41
2023-02-22T19:24:54.339Z,65.64
2023-02-22T19:27:22.003Z,65.82
2023-02-22T19:29:49.858Z,66.90
2023-02-22T19:32:17.674Z,66.79
2023-02-22T19:34:45.174Z,66.15
2023-02-22T19:37:15.438Z,66.18
2023-02-22T19:39:42.825Z,66.00
2023-02-22T19:42:10.394Z,66.49
2023-02-22T19:44:38.013Z,66.92
2023-02-22T19:47:09.170Z,66.45
2023-02-22T19:49:37.539Z,65.93
2023-02-22T19:52:06.716Z,65.52
2023-02-22T19:54:34.159Z,65.86
2023-02-22T19:57:01.543Z,66.66
2023-02-22T19:59:29.101Z,66.20
2023-02-22T20:01:56.438Z,66.15
2023-02-22T20:04:24.478Z,66.25
2023-02-22T20:06:54.779Z,66.91
2023-02-22T20:09:24.109Z,67.32
2023-02-22T20:11:54.196Z,66.91
2023-02-22T20:14:23.567Z,66.69
2023-02-22T20:16:51.735Z,66.96
2023-02-22T20:19:19.165Z,66.62
2023-02-22T20:21:46.462Z,67.68
2023-02-22T20:24:18.487Z,67.67
2023-02-22T20:26:46.808Z,67.42
2023-02-22T20:29:14.293Z,67.34
2023-02-22T20:31:42.563Z,67.93
2023-02-22T20:34:10.297Z,68.04
2023-02-22T20:36:38.944Z,67.24
2023-02-22T20:39:07.573Z,67.27
2023-02-22T20:41:35.562Z,67.66
2023-02-22T20:44:03.075Z,68.00
2023-02-22T20:46:36.248Z,67.92
2023-02-22T20:49:05.289Z,68.20
2023-02-22T20:51:32.868Z,68.28
2023-02-22T20:54:00.968Z,68.40
2023-02-22T20:56:29.719Z,69.27
2023-02-22T20:58:57.763Z,69.09
2023-02-22T21:01:25.088Z,68.79
2023-02-22T21:03:52.552Z,69.00
2023-02-22T21:06:21.583Z,68.82
2023-02-22T21:08:50.998Z,68.58
2023-02-22T21:11:18.646Z,68.53
2023-02-22T21:13:46.142Z,69.05
2023-02-22T21:16:19.818Z,68.84
2023-02-22T21:18:49.472Z,68.64
2023-02-22T21:21:17.135Z,68.29
2023-02-22T21:23:49.798Z,68.25
2023-02-22T21:26:19.205Z,68.57
2023-02-22T21:28:53.616Z,69.05
2023-02-22T21:31:23.073Z,68.93
2023-02-22T21:33:52.187Z,68.62
2023-02-22T21:36:20.063Z,68.58
2023-02-22T21:38:54.115Z,68.44
2023-02-22T21:41:23.756Z,68.30
2023-02-22T21:43:51.620Z,68.78
2023-02-22T21:46:19.246Z,68.70
2023-02-22T21:48:48.954Z,68.30
2023-02-22T21:51:19.435Z,68.78
2023-02-22T21:53:52.451Z,69.41
2023-02-22T21:56:24.521Z,69.11
2023-02-22T21:58:59.489Z,69.55
2023-02-22T22:01:28.588Z,68.42
2023-02-22T22:03:56.540Z,67.86
2023-02-22T22:06:23.935Z,68.00
2023-02-22T22:08:53.726Z,68.57
2023-02-22T22:11:21.346Z,69.00
2023-02-22T22:13:49.262Z,69.12
2023-02-22T22:16:18.560Z,70.09
2023-02-22T22:18:46.221Z,70.34
2023-02-22T22:21:19.290Z,70.96
2023-02-22T22:23:47.264Z,71.99
2023-02-22T22:26:16.449Z,72.08
2023-02-22T22:28:46.230Z,71.84
2023-02-22T22:31:13.815Z,71.62
2023-02-22T22:33:42.022Z,71.79
2023-02-22T22:36:09.977Z,71.52
2023-02-22T22:38:40.423Z,71.73
2023-02-22T22:41:08.939Z,71.87
2023-02-22T22:43:36.823Z,71.57
2023-02-22T22:46:05.552Z,71.55
2023-02-22T22:48:39.207Z,71.48
2023-02-22T22:51:10.845Z,71.72
2023-02-22T22:53:40.286Z,71.77
2023-02-22T22:56:14.357Z,71.51
2023-02-22T22:58:43.980Z,71.34
2023-02-22T23:01:18.202Z,71.60
2023-02-22T23:03:55.209Z,72.61
2023-02-22T23:06:25.069Z,72.89
2023-02-22T23:09:12.894Z,72.65
2023-02-22T23:11:53.707Z,72.17
2023-02-22T23:14:25.888Z,72.28
2023-02-22T23:16:56.599Z,71.99
2023-02-22T23:19:24.354Z,72.57
2023-02-22T23:21:51.684Z,72.52
2023-02-22T23:24:20.799Z,71.96
2023-02-22T23:26:51.038Z,71.64
2023-02-22T23:29:19.324Z,71.68
2023-02-22T23:31:48.645Z,72.59
2023-02-22T23:34:21.413Z,72.68
2023-02-22T23:36:54.842Z,72.51
2023-02-22T23:39:22.426Z,72.89
2023-02-22T23:41:50.554Z,73.20
2023-02-22T23:44:18.002Z,73.09
2023-02-22T23:46:48.469Z,73.21
2023-02-22T23:49:20.263Z,73.09
2023-02-22T23:51:47.806Z,72.30
2023-02-22T23:54:24.631Z,72.43
2023-02-22T23:56:58.189Z,73.15
2023-02-22T23:59:26.646Z,72.41
